Agana, Guam
Current Conditions -  °F | °C
As of 9:54 AM on Monday 24 Nov 2014 (Local Time) from PGUM Reporting Station
Scattered Clouds Scattered Clouds  
Wind Chill: 86°   Ceiling: Unl
Heat Index: 96°   Visibility: 10mi
Dew Point: 76°   Wind: 14mph
Humidity: 72%   Direction: 100°E
Pressure: 29.92"   Gusts: NA
Location:  13.4751°N, 144.7484°E
Report Text: PGUM 232354Z 10012KT 10SM FEW018 SCT027 SCT075 30/24 A2992 RMK AO2 RAB25E35 SLP124 P0000 60010 T03000244 10300 20267 50009
Loading
Personal Weather Stations






























Interactive Weather Map New forecast layout! Learn more

10-Day Weather Forecast

Advertisements
Track Severe Weather on mobile